Time;durP1;ratioP1;P1;durP2;ratioP2;P2;SDS_P1;SDS_P2;PMS_P1;PMS_P2;Temp;Humidity;BMP_temperature;BMP_pressure;BME280_temperature;BME280_humidity;BME280_pressure;Samples;Min_cycle;Max_cycle;Signal;HPM_P1;HPM_P2
2023/01/19 00:01:43;;;;;;;22.77;13.77;;;;;;;-0.01;89.06;98089.23;1683608;82;21509;-93
2023/01/19 00:04:32;;;;;;;;;;;;;;;;;;;;;
2023/01/19 00:06:49;;;;;;;21.77;14.60;;;;;;;0.06;89.08;98092.47;1642714;83;20998;-94
2023/01/19 00:09:22;;;;;;;21.23;13.85;;;;;;;0.10;89.19;98091.47;1678186;83;21585;-93
2023/01/19 00:11:51;;;;;;;20.92;13.85;;;;;;;0.13;89.18;98104.20;1673655;83;21176;-94
2023/01/19 00:14:18;;;;;;;23.52;14.23;;;;;;;0.14;89.17;98107.59;1675327;83;21010;-93
2023/01/19 00:16:46;;;;;;;22.87;13.62;;;;;;;0.17;89.31;98112.66;1698079;81;20991;-94
2023/01/19 00:19:28;;;;;;;;;;;;;;;;;;;;;
2023/01/19 00:21:53;;;;;;;20.57;14.40;;;;;;;0.21;89.26;98117.64;1649947;81;21014;-93
2023/01/19 00:24:23;;;;;;;18.92;12.28;;;;;;;0.19;89.27;98119.41;1710605;82;21450;-93
2023/01/19 00:26:50;;;;;;;27.00;15.50;;;;;;;0.19;89.28;98128.39;1713957;82;21002;-93
2023/01/19 00:29:19;;;;;;;21.68;13.43;;;;;;;0.16;89.35;98132.34;1716802;81;21093;-94
2023/01/19 00:31:47;;;;;;;18.30;11.83;;;;;;;0.15;89.54;98131.95;1711541;81;21188;-93
2023/01/19 00:34:13;;;;;;;19.48;13.32;;;;;;;0.17;89.38;98133.20;1692417;82;21012;-93
2023/01/19 00:36:48;;;;;;;22.65;14.20;;;;;;;0.18;89.42;98135.70;1717024;80;21523;-94
2023/01/19 00:39:19;;;;;;;19.67;12.50;;;;;;;0.17;89.42;98127.62;1727725;80;21116;-93
2023/01/19 00:44:26;;;;;;;21.95;13.03;;;;;;;0.14;89.47;98129.00;1664266;82;21045;-93
2023/01/19 00:46:55;;;;;;;20.25;13.43;;;;;;;0.14;89.54;98133.27;1670255;82;21034;-93
2023/01/19 00:49:25;;;;;;;17.37;12.30;;;;;;;0.13;89.58;98137.56;1666846;82;21028;-93
2023/01/19 00:51:57;;;;;;;20.95;12.70;;;;;;;0.10;89.57;98144.08;1624911;85;21621;-93
2023/01/19 00:54:25;;;;;;;22.25;12.78;;;;;;;0.09;89.60;98153.95;1661213;84;21014;-93
2023/01/19 00:56:52;;;;;;;16.27;11.22;;;;;;;0.10;89.67;98152.22;1647332;84;21272;-93
2023/01/19 00:59:19;;;;;;;17.73;11.30;;;;;;;0.09;89.66;98156.52;1656802;82;21049;-93
2023/01/19 01:01:47;;;;;;;17.90;11.80;;;;;;;0.08;89.74;98159.95;1672636;83;20959;-93
2023/01/19 01:04:16;;;;;;;17.17;11.05;;;;;;;0.07;89.70;98160.85;1637022;84;20990;-93
2023/01/19 01:06:45;;;;;;;20.02;11.93;;;;;;;0.07;89.81;98160.02;1654405;83;20999;-93
2023/01/19 01:09:14;;;;;;;17.10;11.68;;;;;;;0.04;89.81;98171.22;1678150;82;21116;-93
2023/01/19 01:11:42;;;;;;;15.10;10.95;;;;;;;0.04;89.82;98172.50;1683413;83;21475;-94
2023/01/19 01:14:14;;;;;;;18.27;10.38;;;;;;;0.06;89.89;98173.30;1666475;82;20995;-94
2023/01/19 01:16:42;;;;;;;14.85;9.58;;;;;;;0.07;89.85;98178.81;1675568;83;21121;-93
2023/01/19 01:19:09;;;;;;;14.60;9.20;;;;;;;0.06;89.79;98179.72;1675399;82;21517;-94
2023/01/19 01:21:36;;;;;;;15.93;9.67;;;;;;;0.10;89.66;98183.86;1722513;80;21595;-94
2023/01/19 01:24:04;;;;;;;13.08;9.50;;;;;;;0.08;89.73;98192.03;1720385;80;21066;-94
2023/01/19 01:26:30;;;;;;;13.93;9.23;;;;;;;0.09;89.77;98195.02;1718240;80;21172;-93
2023/01/19 01:28:59;;;;;;;14.85;9.98;;;;;;;0.08;89.79;98190.75;1714628;80;20956;-94
2023/01/19 01:31:27;;;;;;;14.40;9.90;;;;;;;0.09;89.88;98198.88;1702419;81;20975;-94
2023/01/19 01:33:56;;;;;;;14.70;8.77;;;;;;;0.11;89.91;98198.39;1703154;81;21035;-94
2023/01/19 01:36:23;;;;;;;12.93;8.28;;;;;;;0.13;89.86;98209.43;1703821;81;20971;-93
2023/01/19 01:38:52;;;;;;;14.47;9.40;;;;;;;0.12;89.84;98204.36;1714550;81;21009;-93
2023/01/19 01:41:18;;;;;;;12.00;8.60;;;;;;;0.16;90.00;98213.19;1707217;82;21094;-94
2023/01/19 01:43:52;;;;;;;16.93;9.55;;;;;;;0.19;90.01;98214.38;1689191;82;21083;-93
2023/01/19 01:46:22;;;;;;;12.53;8.25;;;;;;;0.24;89.98;98218.55;1717192;81;20998;-93
2023/01/19 01:49:00;;;;;;;12.43;8.45;;;;;;;0.27;89.99;98230.02;1735738;79;21070;-92
2023/01/19 01:51:35;;;;;;;11.97;7.92;;;;;;;0.30;89.95;98233.77;1719016;80;21721;-93
2023/01/19 01:54:24;;;;;;;11.83;8.45;;;;;;;0.33;89.98;98238.81;1693151;81;20954;-93
2023/01/19 01:56:58;;;;;;;13.68;7.83;;;;;;;0.33;89.97;98244.78;1734131;80;21449;-93
2023/01/19 01:59:37;;;;;;;12.40;8.15;;;;;;;0.35;89.95;98244.75;1706458;80;21129;-93
2023/01/19 02:05:16;;;;;;;12.75;7.75;;;;;;;0.35;89.85;98247.31;1730052;80;20954;-94
2023/01/19 02:13:42;;;;;;;11.40;7.47;;;;;;;0.31;89.81;98255.97;1712332;81;21454;-93
2023/01/19 02:16:10;;;;;;;9.90;6.55;;;;;;;0.30;89.82;98260.72;1690294;82;20979;-93
2023/01/19 02:18:37;;;;;;;9.78;6.20;;;;;;;0.30;89.76;98264.58;1645107;82;20998;-93
2023/01/19 02:21:29;;;;;;;10.82;7.12;;;;;;;0.28;89.78;98270.19;1707860;82;20978;-92
2023/01/19 02:24:05;;;;;;;12.18;6.90;;;;;;;0.25;89.75;98267.71;1711126;81;21076;-94
2023/01/19 02:26:41;;;;;;;11.38;6.75;;;;;;;0.25;89.78;98270.28;1671512;83;21078;-93
2023/01/19 02:29:16;;;;;;;10.20;6.50;;;;;;;0.23;89.76;98269.05;1681769;83;21628;-93
2023/01/19 02:31:44;;;;;;;11.15;6.80;;;;;;;0.21;89.73;98275.50;1681246;82;21003;-93
2023/01/19 02:34:26;;;;;;;7.90;6.03;;;;;;;0.19;89.77;98277.27;1690831;82;20955;-93
2023/01/19 02:37:05;;;;;;;10.03;5.45;;;;;;;0.19;89.74;98273.41;1670159;84;20984;-93
2023/01/19 02:39:50;;;;;;;11.20;6.58;;;;;;;0.19;89.72;98275.98;1697316;81;22124;-95
2023/01/19 02:42:21;;;;;;;8.03;5.83;;;;;;;0.20;89.70;98281.53;1710019;81;21034;-94
2023/01/19 02:44:52;;;;;;;9.53;6.20;;;;;;;0.19;89.69;98282.40;1695718;82;21858;-93
2023/01/19 02:47:19;;;;;;;8.73;5.08;;;;;;;0.18;89.66;98282.01;1693999;82;21088;-94
2023/01/19 02:50:02;;;;;;;9.53;5.40;;;;;;;0.17;89.64;98280.34;1688346;82;21048;-93
2023/01/19 02:52:30;;;;;;;7.40;4.90;;;;;;;0.16;89.59;98286.34;1675873;83;21017;-93
2023/01/19 02:55:17;;;;;;;7.92;5.40;;;;;;;0.14;89.60;98275.71;1676129;83;20978;-93
2023/01/19 02:57:57;;;;;;;6.62;5.12;;;;;;;0.12;89.53;98274.49;1665116;83;21007;-93
2023/01/19 03:00:51;;;;;;;11.70;4.80;;;;;;;0.10;89.52;98278.81;1630623;85;21033;-93
2023/01/19 03:03:38;;;;;;;8.88;4.67;;;;;;;0.07;89.46;98280.19;1678717;82;21090;-94
2023/01/19 03:06:25;;;;;;;8.08;4.90;;;;;;;0.04;89.43;98281.56;1679499;82;21050;-94
2023/01/19 03:09:04;;;;;;;8.23;5.20;;;;;;;-0.01;89.37;98275.70;1667527;82;21051;-95
2023/01/19 03:11:40;;;;;;;7.45;4.33;;;;;;;-0.04;89.35;98275.80;1679232;81;21067;-94
2023/01/19 03:14:14;;;;;;;7.65;4.42;;;;;;;-0.06;89.37;98277.55;1681884;83;21013;-95
2023/01/19 03:16:54;;;;;;;7.55;5.10;;;;;;;-0.10;89.31;98278.53;1682817;82;21090;-94
2023/01/19 03:19:43;;;;;;;7.92;4.67;;;;;;;-0.11;89.35;98279.40;1680798;82;21529;-93
2023/01/19 03:22:32;;;;;;;;;;;;;;;;;;;;;
2023/01/19 03:24:56;;;;;;;7.08;4.47;;;;;;;-0.11;89.38;98290.95;1677634;81;21064;-93
2023/01/19 03:27:28;;;;;;;10.35;4.47;;;;;;;-0.12;89.33;98291.84;1659965;83;21030;-93
2023/01/19 03:30:00;;;;;;;7.42;4.83;;;;;;;-0.12;89.35;98300.81;1681216;83;21487;-94
2023/01/19 03:32:37;;;;;;;8.48;4.70;;;;;;;-0.10;89.33;98301.63;1661748;83;21066;-93
2023/01/19 03:35:09;;;;;;;5.37;3.83;;;;;;;-0.10;89.30;98301.63;1663909;83;20971;-94
2023/01/19 03:37:40;;;;;;;7.92;4.37;;;;;;;-0.11;89.26;98302.48;1657275;83;21687;-94
2023/01/19 03:40:48;;;;;;;;;;;;;;;;;;;;;
2023/01/19 03:43:06;;;;;;;5.97;4.00;;;;;;;-0.12;89.25;98313.64;1562462;86;21048;-94
2023/01/19 03:45:38;;;;;;;8.00;4.87;;;;;;;-0.13;89.29;98314.54;1658011;82;21541;-94
2023/01/19 03:48:06;;;;;;;7.37;4.90;;;;;;;-0.15;89.28;98317.13;1700890;80;21025;-93
2023/01/19 03:50:33;;;;;;;6.90;4.35;;;;;;;-0.15;89.30;98323.99;1730915;80;21006;-93
2023/01/19 03:53:10;;;;;;;8.70;5.08;;;;;;;-0.15;89.35;98323.99;1708681;80;20966;-94
2023/01/19 03:55:39;;;;;;;5.87;4.30;;;;;;;-0.17;89.29;98327.86;1721691;79;21535;-94
2023/01/19 03:58:06;;;;;;;7.03;4.47;;;;;;;-0.31;89.25;98311.58;1715354;80;20971;-94
2023/01/19 04:00:35;;;;;;;6.67;4.67;;;;;;;-0.18;89.30;98335.62;1711118;80;21476;-93
2023/01/19 04:03:14;;;;;;;6.80;4.85;;;;;;;-0.16;89.33;98342.84;1667186;82;21027;-94
2023/01/19 04:05:42;;;;;;;6.97;4.58;;;;;;;-0.20;89.33;98341.22;1684365;82;20979;-93
2023/01/19 04:08:09;;;;;;;9.45;5.20;;;;;;;-0.29;89.25;98330.31;1698570;81;21516;-93
2023/01/19 04:10:35;;;;;;;7.45;5.03;;;;;;;-0.27;89.26;98343.95;1728985;80;20998;-93
2023/01/19 04:13:03;;;;;;;12.20;6.27;;;;;;;-0.31;89.23;98342.36;1733238;80;21489;-93
2023/01/19 04:15:33;;;;;;;7.85;5.37;;;;;;;-0.34;89.23;98350.10;1702287;81;21066;-93
2023/01/19 04:18:06;;;;;;;10.00;5.65;;;;;;;-0.38;89.20;98353.64;1747234;80;21022;-93
2023/01/19 04:20:34;;;;;;;11.48;4.92;;;;;;;-0.40;89.20;98355.39;1689597;82;20961;-93
2023/01/19 04:23:04;;;;;;;7.17;5.30;;;;;;;-0.39;89.23;98361.36;1723963;81;20971;-93
2023/01/19 04:25:32;;;;;;;10.08;5.97;;;;;;;-0.41;89.21;98358.84;1697634;82;21495;-92
2023/01/19 04:27:59;;;;;;;11.77;5.90;;;;;;;-0.40;89.20;98360.52;1708758;81;20951;-93
2023/01/19 04:30:33;;;;;;;8.50;4.87;;;;;;;-0.40;89.19;98363.09;1686428;82;21529;-94
2023/01/19 04:33:00;;;;;;;7.47;5.00;;;;;;;-0.38;89.20;98353.64;1678563;82;21725;-93
2023/01/19 04:35:27;;;;;;;8.27;5.27;;;;;;;-0.38;89.12;98358.77;1669870;82;21093;-93
2023/01/19 04:37:54;;;;;;;6.25;5.00;;;;;;;-0.38;89.08;98361.34;1676141;82;21025;-94
2023/01/19 04:40:39;;;;;;;;;;;;;;;;;;;;;
2023/01/19 04:42:59;;;;;;;7.12;5.53;;;;;;;-0.38;89.02;98356.20;1654566;83;21060;-93
2023/01/19 04:45:28;;;;;;;7.72;5.10;;;;;;;-0.41;88.94;98351.16;1649678;82;21038;-93
2023/01/19 04:47:57;;;;;;;8.10;4.97;;;;;;;-0.41;88.92;98347.76;1649882;84;21587;-93
2023/01/19 04:50:46;;;;;;;;;;;;;;;;;;;;;
2023/01/19 04:53:12;;;;;;;8.03;4.90;;;;;;;-0.44;88.79;98353.80;1637540;83;21104;-94
2023/01/19 04:55:44;;;;;;;6.22;4.03;;;;;;;-0.49;88.74;98351.78;1674313;82;20982;-93
2023/01/19 04:58:13;;;;;;;7.30;4.60;;;;;;;-0.52;88.66;98348.85;1702446;81;21516;-93
2023/01/19 05:00:41;;;;;;;7.17;4.63;;;;;;;-0.58;88.59;98350.73;1730659;80;21075;-94
2023/01/19 05:03:13;;;;;;;8.05;5.28;;;;;;;-0.62;88.55;98359.36;1707130;80;20989;-93
2023/01/19 05:05:42;;;;;;;10.03;5.67;;;;;;;-0.68;88.54;98353.50;1732218;80;21506;-94
2023/01/19 05:08:09;;;;;;;7.12;4.80;;;;;;;-0.73;88.48;98356.63;1710630;80;21037;-94
2023/01/19 05:10:37;;;;;;;11.12;4.92;;;;;;;-0.75;88.49;98367.35;1723048;80;21017;-93
2023/01/19 05:13:04;;;;;;;7.93;4.97;;;;;;;-0.80;88.45;98364.05;1705311;82;21010;-94
2023/01/19 05:15:32;;;;;;;9.83;5.30;;;;;;;-0.84;88.51;98361.17;1689538;82;21066;-94
2023/01/19 05:17:59;;;;;;;9.53;5.37;;;;;;;-0.88;88.50;98353.13;1707651;82;21003;-92
2023/01/19 05:20:26;;;;;;;9.47;5.67;;;;;;;-0.92;88.44;98361.78;1710447;81;21147;-93
2023/01/19 05:22:53;;;;;;;13.87;5.63;;;;;;;-0.96;88.41;98363.98;1705362;81;21058;-94
2023/01/19 05:25:21;;;;;;;12.70;5.47;;;;;;;-0.97;88.34;98369.56;1732816;79;21519;-94
2023/01/19 05:27:48;;;;;;;12.98;6.67;;;;;;;-1.00;88.34;98370.07;1712348;80;21637;-93
2023/01/19 05:30:18;;;;;;;10.43;6.30;;;;;;;-1.03;88.28;98375.27;1732191;80;21038;-95
2023/01/19 05:32:45;;;;;;;13.48;7.15;;;;;;;-1.08;88.27;98375.80;1741187;80;21219;-93
2023/01/19 05:35:15;;;;;;;12.68;7.10;;;;;;;-1.15;88.25;98375.07;1708558;82;20969;-93
2023/01/19 05:37:40;;;;;;;9.10;6.10;;;;;;;-1.21;88.24;98381.17;1722812;80;21086;-93
2023/01/19 05:40:11;;;;;;;11.33;5.97;;;;;;;-1.26;88.20;98372.77;1739551;80;21458;-93
2023/01/19 05:42:38;;;;;;;10.78;5.20;;;;;;;-1.30;88.26;98368.56;1737574;80;21553;-93
2023/01/19 05:45:05;;;;;;;9.33;5.10;;;;;;;-1.32;88.23;98379.27;1726839;80;21045;-94
2023/01/19 05:47:35;;;;;;;9.25;5.10;;;;;;;-1.35;88.22;98379.34;1736116;80;21067;-94
2023/01/19 05:50:15;;;;;;;7.62;5.12;;;;;;;-1.40;88.17;98380.73;1712231;81;20994;-94
2023/01/19 05:52:44;;;;;;;11.48;5.03;;;;;;;-1.44;88.16;98378.26;1725743;79;21053;-94
2023/01/19 05:55:10;;;;;;;10.13;5.13;;;;;;;-1.46;88.18;98380.00;1731535;80;21097;-93
2023/01/19 05:57:42;;;;;;;9.23;5.13;;;;;;;-1.49;88.18;98369.82;1735034;80;21642;-93
2023/01/19 06:00:12;;;;;;;8.35;5.05;;;;;;;-1.51;88.19;98374.12;1718761;80;21069;-94
2023/01/19 06:02:50;;;;;;;9.58;5.28;;;;;;;-1.53;88.22;98373.33;1751238;79;21522;-94
2023/01/19 06:05:36;;;;;;;;;;;;;;;;;;;;;
2023/01/19 06:07:56;;;;;;;9.90;5.90;;;;;;;-1.60;88.15;98377.30;1644110;84;21664;-93
2023/01/19 06:10:26;;;;;;;10.88;5.50;;;;;;;-1.61;88.24;98379.44;1590241;86;21044;-94
2023/01/19 06:12:55;;;;;;;8.53;5.30;;;;;;;-1.62;88.22;98382.88;1653351;85;21065;-93
2023/01/19 06:15:21;;;;;;;11.15;5.53;;;;;;;-1.63;88.23;98390.57;1655081;85;21059;-92
2023/01/19 06:18:24;;;;;;;13.98;6.62;;;;;;;-1.64;88.20;98397.41;1652771;83;21061;-94
2023/01/19 06:20:51;;;;;;;7.12;5.92;;;;;;;-1.64;88.13;98402.53;1652719;83;21022;-92
2023/01/19 06:23:25;;;;;;;11.63;5.65;;;;;;;-1.70;87.91;98402.66;1666915;83;21014;-93
2023/01/19 06:26:03;;;;;;;7.95;5.25;;;;;;;-1.76;87.84;98396.38;1655560;83;21107;-94
